Time;durP1;ratioP1;P1;durP2;ratioP2;P2;SDS_P1;SDS_P2;PMS_P1;PMS_P2;Temp;Humidity;BMP_temperature;BMP_pressure;BME280_temperature;BME280_humidity;BME280_pressure;Samples;Min_cycle;Max_cycle;Signal;HPM_P1;HPM_P2
2023/03/09 06:18:44;;;;;;;25.20;17.50;;;;;;;4.60;98.53;97983.02;102240;1299;600942;-71
2023/03/09 06:21:14;;;;;;;21.10;17.00;;;;;;;4.67;98.21;97987.15;104640;1268;61747;-70
2023/03/09 06:23:43;;;;;;;22.30;16.40;;;;;;;4.79;98.01;97977.81;104754;1273;59400;-72
2023/03/09 06:26:13;;;;;;;17.70;15.00;;;;;;;4.92;97.67;97981.92;104774;1269;71751;-68
2023/03/09 06:28:47;;;;;;;17.50;13.30;;;;;;;5.06;96.88;97983.45;104789;1269;67715;-68
2023/03/09 06:31:15;;;;;;;14.50;11.40;;;;;;;5.20;96.09;97985.89;104036;1266;630848;-69
2023/03/09 06:33:47;;;;;;;18.80;13.50;;;;;;;5.34;95.14;97987.10;104683;1270;60995;-68
2023/03/09 06:36:17;;;;;;;16.80;12.90;;;;;;;5.48;94.50;97984.02;104989;1266;59821;-70
2023/03/09 06:38:47;;;;;;;16.80;13.30;;;;;;;5.62;93.85;97989.38;104764;1269;73078;-70
2023/03/09 06:41:15;;;;;;;14.30;11.70;;;;;;;5.75;93.44;97985.92;104879;1273;67688;-69
2023/03/09 06:43:46;;;;;;;17.60;12.70;;;;;;;5.87;92.58;97985.55;105016;1266;72210;-69
2023/03/09 06:46:15;;;;;;;22.50;13.30;;;;;;;5.96;91.38;97976.80;104526;1266;61486;-69
2023/03/09 06:48:44;;;;;;;16.10;11.50;;;;;;;6.03;90.94;97983.70;104963;1271;59744;-69
2023/03/09 06:51:12;;;;;;;15.60;11.20;;;;;;;6.14;90.96;97973.66;104760;1268;74581;-68
2023/03/09 06:53:41;;;;;;;18.40;13.90;;;;;;;6.25;90.16;97969.20;104844;1265;66948;-67
2023/03/09 06:56:10;;;;;;;17.30;12.60;;;;;;;6.34;89.44;97974.24;105050;1270;73576;-67
2023/03/09 06:58:39;;;;;;;15.00;12.10;;;;;;;6.46;88.78;97973.77;104659;1270;60056;-68
2023/03/09 07:01:10;;;;;;;13.40;9.70;;;;;;;6.59;87.69;97974.80;104918;1271;61317;-67
2023/03/09 07:03:40;;;;;;;12.20;10.50;;;;;;;6.74;86.95;97972.94;105028;1265;71976;-68
2023/03/09 07:06:09;;;;;;;11.80;9.60;;;;;;;6.88;85.79;97968.88;104628;1265;69009;-67
2023/03/09 07:08:39;;;;;;;14.20;10.60;;;;;;;7.02;84.85;97960.95;104602;1267;73313;-65
2023/03/09 07:11:08;;;;;;;14.30;11.00;;;;;;;7.14;84.08;97971.96;104647;1267;61207;-68
2023/03/09 07:13:38;;;;;;;14.70;11.20;;;;;;;7.23;83.65;97968.78;104744;1268;59605;-67
2023/03/09 07:16:07;;;;;;;15.00;11.30;;;;;;;7.33;82.91;97963.90;104455;1273;74863;-70
2023/03/09 07:18:37;;;;;;;13.40;10.20;;;;;;;7.40;82.09;97971.42;104260;1269;69032;-67
2023/03/09 07:21:05;;;;;;;12.00;10.40;;;;;;;7.48;81.84;97972.31;104648;1271;72282;-67
2023/03/09 07:23:34;;;;;;;15.90;11.50;;;;;;;7.57;81.83;97973.36;104873;1269;59616;-67
2023/03/09 07:26:04;;;;;;;16.90;12.40;;;;;;;7.67;81.19;97971.45;104583;1269;60242;-69
2023/03/09 07:28:32;;;;;;;15.30;11.80;;;;;;;7.77;80.60;97963.61;104755;1269;73625;-70
2023/03/09 07:31:08;;;;;;;17.20;12.70;;;;;;;7.87;80.37;97959.33;104915;1269;69462;-69
2023/03/09 07:33:39;;;;;;;16.40;13.50;;;;;;;7.97;79.57;97962.77;104401;1269;73501;-69
2023/03/09 07:36:07;;;;;;;16.40;12.70;;;;;;;8.05;79.28;97962.56;104988;1269;59623;-69
2023/03/09 07:38:36;;;;;;;16.20;13.60;;;;;;;8.13;79.03;97952.41;104954;1268;59594;-70
2023/03/09 07:41:06;;;;;;;16.10;13.10;;;;;;;8.22;78.59;97954.07;104828;1270;73663;-71
2023/03/09 07:43:43;;;;;;;15.50;12.50;;;;;;;8.32;78.29;97951.67;104746;1269;69558;-72
2023/03/09 07:46:27;;;;;;;15.40;12.30;;;;;;;8.47;77.62;97949.81;104722;1268;73067;-72
2023/03/09 07:48:55;;;;;;;13.80;11.60;;;;;;;8.64;77.15;97958.91;104767;1271;59661;-70
2023/03/09 07:51:24;;;;;;;14.10;10.10;;;;;;;8.79;76.03;97947.05;105256;1264;60445;-72
2023/03/09 07:53:52;;;;;;;13.70;10.80;;;;;;;8.92;75.79;97942.50;105244;1259;72529;-74
2023/03/09 07:56:20;;;;;;;15.00;11.60;;;;;;;9.03;74.83;97949.52;105337;1262;69594;-72
2023/03/09 07:58:51;;;;;;;12.80;10.80;;;;;;;9.12;74.15;97939.14;105194;1262;73037;-73
2023/03/09 08:01:20;;;;;;;14.80;10.60;;;;;;;9.20;73.80;97940.30;105185;1262;60727;-69
2023/03/09 08:03:49;;;;;;;12.10;10.70;;;;;;;9.29;72.92;97950.30;105144;1264;61141;-68
2023/03/09 08:06:17;;;;;;;15.30;10.50;;;;;;;9.36;72.56;97946.20;105256;1261;72810;-69
2023/03/09 08:08:48;;;;;;;16.10;11.20;;;;;;;9.44;72.19;97949.55;105293;1262;68659;-71
2023/03/09 08:11:16;;;;;;;13.00;10.60;;;;;;;9.53;71.70;97949.11;105195;1260;72317;-70
2023/03/09 08:13:47;;;;;;;13.00;11.00;;;;;;;9.61;71.22;97947.95;105269;1263;61173;-69
2023/03/09 08:16:16;;;;;;;17.20;10.90;;;;;;;9.70;71.24;97944.15;105331;1265;60865;-67
2023/03/09 08:18:45;;;;;;;17.20;13.40;;;;;;;9.79;70.46;97941.95;105330;1265;73857;-69
2023/03/09 08:21:13;;;;;;;14.50;12.00;;;;;;;9.87;70.51;97940.93;105637;1256;70278;-70
2023/03/09 08:23:44;;;;;;;12.50;11.10;;;;;;;9.96;69.69;97951.73;105676;1256;72957;-70
2023/03/09 08:26:14;;;;;;;15.70;12.30;;;;;;;10.04;69.46;97944.20;105456;1261;60773;-72
2023/03/09 08:28:42;;;;;;;17.80;12.40;;;;;;;10.11;69.02;97938.05;105499;1257;60947;-74
2023/03/09 08:31:16;;;;;;;15.90;12.20;;;;;;;10.17;68.66;97941.43;105622;1260;72586;-71
2023/03/09 08:33:58;;;;;;;15.10;11.50;;;;;;;10.23;68.54;97935.17;105463;1261;69898;-73
2023/03/09 08:36:29;;;;;;;16.50;12.00;;;;;;;10.31;68.38;97934.09;105486;1255;74094;-73
2023/03/09 08:39:03;;;;;;;17.40;11.40;;;;;;;10.38;67.90;97934.15;105437;1256;61391;-74
2023/03/09 08:41:33;;;;;;;14.00;12.00;;;;;;;10.42;67.36;97933.17;105528;1255;60357;-72
2023/03/09 08:44:03;;;;;;;13.10;10.90;;;;;;;10.48;67.47;97942.44;105520;1260;74262;-72
2023/03/09 08:46:35;;;;;;;;;;;;;;;10.54;67.20;97932.03;105404;1264;69778;-74
2023/03/09 08:49:08;;;;;;;13.10;11.50;;;;;;;10.57;66.75;97939.45;105550;1256;73447;-72
2023/03/09 08:51:38;;;;;;;13.70;10.10;;;;;;;10.60;66.57;97932.58;105555;1256;61033;-72
2023/03/09 08:54:06;;;;;;;15.70;11.20;;;;;;;10.66;66.53;97935.45;105610;1259;61314;-75
2023/03/09 08:56:35;;;;;;;17.10;11.00;;;;;;;10.71;66.07;97935.52;105357;1257;74818;-73
2023/03/09 08:59:07;;;;;;;16.40;10.70;;;;;;;10.77;66.11;97929.72;105631;1260;69563;-73
2023/03/09 09:01:37;;;;;;;12.40;8.90;;;;;;;10.85;65.90;97934.92;105420;1256;71650;-74
2023/03/09 09:04:06;;;;;;;16.60;9.40;;;;;;;10.93;65.50;97939.34;105329;1256;61958;-76
2023/03/09 09:06:34;;;;;;;13.80;9.80;;;;;;;11.00;65.47;97928.75;105468;1259;60118;-72
2023/03/09 09:09:05;;;;;;;16.70;10.40;;;;;;;11.07;65.12;97921.47;105519;1259;73217;-72
2023/03/09 09:11:33;;;;;;;14.20;9.80;;;;;;;11.15;65.21;97926.28;105648;1262;67043;-74
2023/03/09 09:14:01;;;;;;;10.50;8.90;;;;;;;11.22;64.39;97935.34;105568;1261;72392;-72
2023/03/09 09:16:29;;;;;;;13.10;9.40;;;;;;;11.29;64.14;97933.02;105617;1256;61099;-69
2023/03/09 09:18:58;;;;;;;13.20;9.20;;;;;;;11.36;63.81;97935.20;105537;1256;61243;-73
2023/03/09 09:21:30;;;;;;;13.30;8.50;;;;;;;11.44;63.83;97929.66;105686;1260;74845;-69
2023/03/09 09:23:59;;;;;;;12.60;8.70;;;;;;;11.52;63.44;97933.18;105759;1256;68580;-70
2023/03/09 09:26:28;;;;;;;10.40;8.20;;;;;;;11.60;63.11;97929.52;105452;1256;74265;-68
2023/03/09 09:28:57;;;;;;;9.80;8.20;;;;;;;11.69;62.90;97931.11;105767;1259;62017;-72
2023/03/09 09:31:26;;;;;;;13.60;7.70;;;;;;;11.82;62.15;97939.66;105584;1256;61120;-75
2023/03/09 09:33:59;;;;;;;10.30;8.40;;;;;;;11.94;61.68;97938.08;105486;1261;74483;-71
2023/03/09 09:36:27;;;;;;;10.60;8.00;;;;;;;12.02;60.88;97947.70;105475;1263;66787;-72
2023/03/09 09:38:55;;;;;;;9.60;7.70;;;;;;;12.06;60.50;97947.34;105580;1260;74277;-74
2023/03/09 09:41:41;;;;;;;10.00;8.30;;;;;;;12.08;60.24;97954.96;105463;1256;62253;-73
2023/03/09 09:44:13;;;;;;;10.50;7.40;;;;;;;12.09;60.32;97944.38;105642;1259;59946;-74
2023/03/09 09:46:42;;;;;;;7.60;6.80;;;;;;;12.09;60.14;97947.56;105748;1260;73834;-73
2023/03/09 09:49:21;;;;;;;8.80;6.40;;;;;;;12.09;59.90;97965.02;105729;1256;68522;-73
2023/03/09 09:52:19;;;;;;;12.70;8.30;;;;;;;12.07;60.11;97953.25;105774;1256;73197;-71
2023/03/09 09:54:58;;;;;;;6.80;5.60;;;;;;;12.07;60.42;97951.75;105577;1257;59667;-73
2023/03/09 09:57:38;;;;;;;8.90;6.20;;;;;;;12.07;60.44;97942.92;105672;1259;62102;-69
2023/03/09 10:00:12;;;;;;;8.10;6.70;;;;;;;12.09;60.41;97943.17;105653;1255;72184;-73
2023/03/09 10:02:51;;;;;;;9.20;6.00;;;;;;;12.12;60.55;97940.17;105594;1260;69778;-71
2023/03/09 10:05:42;;;;;;;;;;;;;;;12.12;60.26;97944.30;105715;1256;70443;-70
2023/03/09 10:08:25;;;;;;;9.90;5.80;;;;;;;12.14;60.53;97941.84;105564;1260;62473;-74
2023/03/09 10:10:56;;;;;;;6.90;6.20;;;;;;;12.18;60.75;97936.52;105665;1260;61908;-72
2023/03/09 10:13:34;;;;;;;8.10;6.50;;;;;;;12.23;60.63;97935.27;105581;1260;73622;-73
2023/03/09 10:16:06;;;;;;;8.00;6.50;;;;;;;12.31;60.40;97934.45;105489;1258;66827;-77
2023/03/09 10:18:40;;;;;;;13.10;7.40;;;;;;;12.41;60.34;97932.02;105632;1257;72583;-76
2023/03/09 10:21:41;;;;;;;9.60;7.20;;;;;;;12.52;59.99;97929.54;105922;1256;61677;-74
2023/03/09 10:24:31;;;;;;;7.00;6.30;;;;;;;12.70;59.75;97919.69;105585;1261;61075;-74
2023/03/09 10:27:19;;;;;;;7.50;6.70;;;;;;;12.87;58.95;97909.62;105534;1260;74872;-74
2023/03/09 10:30:02;;;;;;;7.30;6.10;;;;;;;13.04;58.53;97903.34;105512;1261;67449;-74
2023/03/09 10:32:40;;;;;;;12.00;6.70;;;;;;;13.21;57.91;97894.02;105542;1256;73628;-73
2023/03/09 10:35:20;;;;;;;10.90;7.20;;;;;;;13.29;56.89;97894.89;105718;1256;60556;-73
2023/03/09 10:37:50;;;;;;;7.40;6.40;;;;;;;13.37;56.95;97893.11;105529;1257;60936;-76
2023/03/09 10:40:29;;;;;;;9.50;6.00;;;;;;;13.51;57.01;97882.96;105551;1262;74174;-72
2023/03/09 10:42:58;;;;;;;10.30;6.10;;;;;;;13.67;56.73;97893.41;105570;1256;68000;-72
2023/03/09 10:45:31;;;;;;;8.40;5.60;;;;;;;13.82;54.87;97906.77;105516;1258;71583;-72
2023/03/09 10:48:06;;;;;;;5.90;5.40;;;;;;;13.81;54.65;97887.88;105582;1260;61960;-76
2023/03/09 10:50:37;;;;;;;6.40;5.70;;;;;;;13.77;54.76;97874.16;105179;1256;60809;-75
2023/03/09 10:53:44;;;;;;;6.90;5.10;;;;;;;13.71;54.76;97880.30;105683;1260;75837;-77
2023/03/09 10:56:21;;;;;;;5.90;5.30;;;;;;;13.66;55.23;97875.63;105257;1265;67840;-77
2023/03/09 10:59:17;;;;;;;6.10;5.20;;;;;;;13.69;55.50;97882.51;105757;1256;72323;-74
2023/03/09 11:01:51;;;;;;;9.70;7.20;;;;;;;13.69;55.40;97882.64;105731;1260;60925;-73
2023/03/09 11:04:36;;;;;;;6.50;5.30;;;;;;;13.69;55.24;97877.68;105685;1260;61462;-74
2023/03/09 11:07:22;;;;;;;12.10;5.80;;;;;;;13.69;55.27;97873.14;105494;1256;74184;-72
2023/03/09 11:09:53;;;;;;;9.50;5.10;;;;;;;13.72;55.21;97871.10;105588;1256;69631;-73
2023/03/09 11:12:32;;;;;;;9.40;5.90;;;;;;;13.72;54.80;97875.90;105802;1262;74532;-76
2023/03/09 11:15:03;;;;;;;7.50;5.30;;;;;;;13.69;54.79;97872.02;105641;1261;60421;-72
2023/03/09 11:17:38;;;;;;;8.90;5.50;;;;;;;13.64;54.83;97862.38;105687;1260;60433;-72
2023/03/09 11:20:12;;;;;;;6.50;5.40;;;;;;;13.57;54.89;97859.66;105841;1262;74916;-72
2023/03/09 11:22:43;;;;;;;8.40;5.60;;;;;;;13.53;55.07;97857.84;105709;1260;67248;-74
2023/03/09 11:25:14;;;;;;;7.60;5.40;;;;;;;13.50;55.30;97860.73;105757;1262;74727;-72
2023/03/09 11:27:47;;;;;;;11.60;5.30;;;;;;;13.50;55.45;97866.60;105663;1257;61154;-73
2023/03/09 11:30:16;;;;;;;5.90;5.30;;;;;;;13.52;55.41;97862.45;105616;1260;60906;-72
2023/03/09 11:32:52;;;;;;;5.90;5.00;;;;;;;13.53;55.54;97858.73;105584;1256;73512;-71
2023/03/09 11:35:22;;;;;;;8.40;5.40;;;;;;;13.57;55.47;97858.64;105678;1256;69689;-72
2023/03/09 11:37:56;;;;;;;;;;;;;;;13.61;55.33;97855.70;105685;1257;73295;-72
2023/03/09 11:40:28;;;;;;;10.10;6.70;;;;;;;13.66;55.28;97860.80;105677;1261;60561;-72
2023/03/09 11:43:00;;;;;;;8.40;6.70;;;;;;;13.71;54.92;97843.80;105494;1260;60558;-74
2023/03/09 11:45:30;;;;;;;9.40;6.10;;;;;;;13.74;54.74;97842.19;105817;1260;73426;-76
2023/03/09 11:48:31;;;;;;;8.20;6.00;;;;;;;13.75;54.63;97836.77;105702;1256;68177;-75
2023/03/09 11:51:37;;;;;;;5.90;5.00;;;;;;;13.80;54.61;97838.51;105557;1261;73915;-71
2023/03/09 11:54:20;;;;;;;7.40;5.10;;;;;;;13.85;54.00;97827.08;105219;1265;61259;-72
2023/03/09 11:56:49;;;;;;;9.00;6.50;;;;;;;13.85;54.09;97822.41;105484;1260;61855;-72
2023/03/09 11:59:20;;;;;;;7.40;5.40;;;;;;;13.89;54.22;97823.20;105589;1262;74688;-72
2023/03/09 12:01:49;;;;;;;10.10;5.90;;;;;;;13.89;53.84;97818.34;105222;1261;67921;-72
2023/03/09 12:04:18;;;;;;;6.60;5.60;;;;;;;13.89;54.13;97821.33;105644;1260;74298;-72
2023/03/09 12:07:01;;;;;;;11.20;6.20;;;;;;;13.91;53.98;97814.67;105703;1262;61225;-72
2023/03/09 12:09:48;;;;;;;7.00;5.70;;;;;;;13.91;54.02;97821.27;105668;1260;60458;-73
2023/03/09 12:12:28;;;;;;;8.00;6.80;;;;;;;13.91;54.08;97812.71;105692;1256;74120;-71
2023/03/09 12:15:03;;;;;;;12.60;6.80;;;;;;;13.90;54.17;97804.10;105622;1262;69667;-84
2023/03/09 12:17:37;;;;;;;8.60;6.60;;;;;;;13.91;54.11;97807.23;105696;1256;74017;-80
2023/03/09 12:20:06;;;;;;;10.40;6.10;;;;;;;13.92;54.00;97810.52;105743;1256;60483;-82
2023/03/09 12:22:39;;;;;;;9.30;6.90;;;;;;;13.90;54.28;97805.11;105824;1256;61864;-76
2023/03/09 12:25:17;;;;;;;7.50;6.60;;;;;;;13.92;54.37;97803.39;105642;1257;74078;-79
2023/03/09 12:27:53;;;;;;;7.60;6.60;;;;;;;13.96;54.31;97801.64;105559;1256;69418;-88
2023/03/09 12:30:33;;;;;;;11.50;7.40;;;;;;;13.99;54.03;97803.11;105591;1260;72950;-79
2023/03/09 12:33:02;;;;;;;9.00;7.20;;;;;;;14.01;54.03;97798.94;105648;1261;60523;-77
2023/03/09 12:35:38;;;;;;;11.70;6.70;;;;;;;14.02;54.27;97800.27;105512;1256;60955;-73
2023/03/09 12:38:21;;;;;;;10.70;6.50;;;;;;;14.04;54.07;97801.84;105390;1262;75832;-77
2023/03/09 12:40:49;;;;;;;9.60;6.50;;;;;;;14.05;54.09;97800.52;105721;1260;66889;-75
2023/03/09 12:43:19;;;;;;;6.60;6.00;;;;;;;14.06;54.15;97795.13;105613;1263;72450;-71
2023/03/09 12:45:48;;;;;;;7.50;5.70;;;;;;;14.08;54.10;97787.59;105785;1260;61695;-70
2023/03/09 12:48:28;;;;;;;11.50;7.90;;;;;;;14.10;54.16;97781.52;105369;1260;61506;-67
2023/03/09 12:51:19;;;;;;;10.70;7.10;;;;;;;14.15;54.27;97778.84;105313;1262;74716;-72
2023/03/09 12:54:17;;;;;;;8.30;6.70;;;;;;;14.17;54.06;97777.19;105299;1258;69782;-74
2023/03/09 12:56:45;;;;;;;7.10;5.70;;;;;;;14.18;54.16;97776.69;105600;1261;71397;-73
2023/03/09 12:59:15;;;;;;;7.30;6.30;;;;;;;14.18;54.02;97777.84;105701;1260;61279;-72
2023/03/09 13:01:46;;;;;;;9.90;7.90;;;;;;;14.16;54.29;97778.13;105634;1262;60486;-75
2023/03/09 13:04:15;;;;;;;8.60;7.00;;;;;;;14.17;54.29;97785.45;105878;1256;74168;-74
2023/03/09 13:06:44;;;;;;;9.50;7.30;;;;;;;14.18;54.22;97788.35;105833;1262;68898;-75
2023/03/09 13:09:13;;;;;;;9.60;6.70;;;;;;;14.19;54.31;97786.63;105884;1269;72991;-72
2023/03/09 13:11:42;;;;;;;12.10;6.20;;;;;;;14.20;54.30;97786.59;105838;1260;61116;-83
2023/03/09 13:14:34;;;;;;;7.40;6.00;;;;;;;14.21;54.28;97784.30;105693;1262;60439;-75
2023/03/09 13:17:23;;;;;;;10.60;7.60;;;;;;;14.21;54.36;97782.97;105611;1262;74231;-77
2023/03/09 13:19:55;;;;;;;18.50;7.70;;;;;;;14.18;54.56;97781.17;106063;1257;67037;-85
2023/03/09 13:22:26;;;;;;;14.00;7.40;;;;;;;14.18;54.75;97782.58;106622;1256;73399;-86
2023/03/09 13:25:30;;;;;;;11.00;6.80;;;;;;;14.19;54.91;97783.52;106354;1261;60906;-79
2023/03/09 13:28:21;;;;;;;8.80;6.40;;;;;;;14.20;55.30;97782.65;106298;1260;60613;-76
2023/03/09 13:30:53;;;;;;;9.70;6.80;;;;;;;14.21;55.68;97782.08;105702;1262;74037;-78
2023/03/09 13:33:27;;;;;;;11.80;7.20;;;;;;;14.21;55.73;97779.21;105726;1262;68788;-74
2023/03/09 13:35:59;;;;;;;11.90;7.50;;;;;;;14.23;55.98;97779.77;105889;1260;71325;-75
2023/03/09 13:38:31;;;;;;;10.10;7.10;;;;;;;14.23;56.23;97774.35;105711;1258;60698;-76
2023/03/09 13:41:00;;;;;;;15.70;8.70;;;;;;;14.23;56.75;97775.73;105804;1257;61145;-77
2023/03/09 13:43:33;;;;;;;9.80;7.60;;;;;;;14.23;56.97;97777.28;105539;1258;75840;-79
2023/03/09 13:46:03;;;;;;;;;;;;;;;14.23;57.23;97773.05;105728;1260;66371;-77
2023/03/09 13:48:36;;;;;;;11.70;8.10;;;;;;;14.22;56.79;97772.77;105840;1259;73441;-76
2023/03/09 13:51:04;;;;;;;9.90;8.10;;;;;;;14.20;57.16;97763.16;105683;1257;61152;-76
2023/03/09 13:53:32;;;;;;;11.90;8.00;;;;;;;14.17;57.49;97762.05;105812;1260;60926;-76
2023/03/09 13:56:05;;;;;;;10.90;9.20;;;;;;;14.16;57.86;97760.90;105458;1256;75322;-71
2023/03/09 13:58:43;;;;;;;27.90;9.70;;;;;;;14.16;57.89;97760.83;105448;1260;68788;-72
2023/03/09 14:01:23;;;;;;;15.50;10.00;;;;;;;14.12;58.33;97759.50;105759;1260;73552;-77
2023/03/09 14:03:54;;;;;;;12.00;8.00;;;;;;;14.09;58.58;97757.23;105645;1261;61236;-73
2023/03/09 14:06:29;;;;;;;12.30;7.60;;;;;;;14.08;58.25;97753.15;105826;1256;61821;-70
2023/03/09 14:09:28;;;;;;;12.90;9.50;;;;;;;14.03;58.91;97753.32;105670;1256;74863;-76
2023/03/09 14:11:57;;;;;;;24.60;14.60;;;;;;;13.96;60.14;97745.43;105820;1258;68850;-73
2023/03/09 14:14:27;;;;;;;15.50;10.70;;;;;;;13.93;60.67;97747.16;105777;1269;72178;-73
2023/03/09 14:16:55;;;;;;;13.20;10.20;;;;;;;13.92;60.68;97749.38;105844;1258;60608;-73
2023/03/09 14:19:28;;;;;;;17.20;9.50;;;;;;;13.92;60.72;97746.80;105654;1258;61276;-73
2023/03/09 14:21:57;;;;;;;19.30;10.30;;;;;;;13.91;60.73;97741.80;105797;1260;76331;-72
2023/03/09 14:24:30;;;;;;;13.90;11.20;;;;;;;13.90;60.76;97732.54;105611;1257;66997;-73
2023/03/09 14:27:24;;;;;;;19.10;12.90;;;;;;;13.89;61.67;97733.48;105886;1261;72861;-71
2023/03/09 14:29:54;;;;;;;17.90;13.20;;;;;;;13.84;62.79;97736.03;105738;1258;61421;-71
2023/03/09 14:32:29;;;;;;;19.60;12.50;;;;;;;13.80;63.83;97731.74;105844;1260;60459;-75
2023/03/09 14:35:29;;;;;;;20.10;13.20;;;;;;;13.74;63.96;97728.18;105866;1257;74104;-70
2023/03/09 14:37:58;;;;;;;26.70;16.00;;;;;;;13.69;65.69;97729.40;105826;1258;67886;-79
2023/03/09 14:40:31;;;;;;;17.50;12.10;;;;;;;13.60;66.86;97736.25;105593;1260;74385;-72
2023/03/09 14:43:25;;;;;;;16.80;11.50;;;;;;;13.57;66.67;97740.35;105561;1260;62540;-72
2023/03/09 14:46:14;;;;;;;34.40;21.60;;;;;;;13.52;67.98;97743.29;105665;1260;61000;-77
2023/03/09 14:48:44;;;;;;;34.10;21.80;;;;;;;13.42;69.53;97744.46;105727;1260;73734;-78
2023/03/09 14:51:19;;;;;;;25.00;20.30;;;;;;;13.35;69.77;97746.58;105622;1263;68595;-78
2023/03/09 14:53:57;;;;;;;32.20;23.80;;;;;;;13.25;70.91;97748.80;105505;1263;72935;-77
2023/03/09 14:56:29;;;;;;;34.10;21.60;;;;;;;13.10;71.46;97750.40;105529;1264;60825;-81
2023/03/09 14:59:00;;;;;;;17.70;12.50;;;;;;;12.92;74.90;97757.10;105572;1257;62610;-82
2023/03/09 15:01:42;;;;;;;15.20;10.90;;;;;;;12.51;78.29;97768.40;105506;1264;73938;-81
2023/03/09 15:04:30;;;;;;;12.80;9.60;;;;;;;12.04;80.47;97769.89;105861;1256;67446;-85
2023/03/09 15:07:13;;;;;;;13.90;10.80;;;;;;;11.66;82.53;97784.76;105801;1262;72372;-83
2023/03/09 15:09:44;;;;;;;14.70;11.00;;;;;;;11.39;84.22;97785.34;105657;1257;61362;-85
2023/03/09 15:12:27;;;;;;;11.80;10.40;;;;;;;11.18;86.00;97792.92;105839;1257;61756;-83
2023/03/09 15:15:17;;;;;;;10.80;8.20;;;;;;;10.83;89.11;97787.80;105776;1257;74358;-82
2023/03/09 15:17:50;;;;;;;14.50;10.20;;;;;;;10.47;91.50;97786.46;106114;1264;69636;-83
2023/03/09 15:20:20;;;;;;;14.90;10.30;;;;;;;10.24;93.22;97792.29;106294;1261;72149;-82
2023/03/09 15:23:18;;;;;;;19.80;11.40;;;;;;;10.11;94.10;97793.48;106582;1257;62644;-81
2023/03/09 15:26:00;;;;;;;17.30;12.40;;;;;;;10.00;95.66;97790.48;106340;1261;61151;-86
2023/03/09 15:28:37;;;;;;;14.00;11.80;;;;;;;9.81;97.45;97784.83;106302;1260;74099;-82
2023/03/09 15:31:12;;;;;;;20.10;12.50;;;;;;;9.71;98.22;97783.94;106399;1260;67048;-83
2023/03/09 15:33:59;;;;;;;23.50;15.90;;;;;;;9.63;99.01;97784.06;106342;1260;76882;-81
2023/03/09 15:36:31;;;;;;;14.20;12.60;;;;;;;9.60;99.60;97784.86;105871;1256;62080;-86
2023/03/09 15:39:04;;;;;;;13.10;11.30;;;;;;;9.58;99.65;97783.23;105836;1257;60527;-83
2023/03/09 15:41:36;;;;;;;14.30;12.70;;;;;;;9.59;99.77;97782.99;105926;1260;74668;-84
2023/03/09 15:44:06;;;;;;;16.30;12.40;;;;;;;9.58;99.95;97783.23;105971;1261;68042;-83
2023/03/09 15:46:40;;;;;;;17.00;10.80;;;;;;;9.55;99.90;97784.27;106668;1257;71615;-82
2023/03/09 15:49:10;;;;;;;11.80;9.00;;;;;;;9.51;99.99;97783.27;105895;1260;63395;-79
2023/03/09 15:51:38;;;;;;;15.80;8.70;;;;;;;9.45;100.00;97779.58;105775;1257;60668;-81
2023/03/09 15:54:11;;;;;;;15.40;12.00;;;;;;;9.36;100.00;97773.42;105936;1260;75497;-83
2023/03/09 15:56:46;;;;;;;17.00;11.70;;;;;;;9.29;100.00;97772.23;105815;1258;67182;-75
2023/03/09 15:59:16;;;;;;;12.70;10.90;;;;;;;9.20;100.00;97771.86;105558;1256;72166;-75
2023/03/09 16:01:51;;;;;;;14.30;9.80;;;;;;;9.09;100.00;97770.56;105800;1257;62463;-76
2023/03/09 16:04:23;;;;;;;10.20;9.00;;;;;;;8.97;100.00;97777.25;105708;1260;60971;-78
2023/03/09 16:06:55;;;;;;;14.20;8.80;;;;;;;8.91;100.00;97774.80;105656;1257;75142;-77
2023/03/09 16:09:26;;;;;;;16.50;10.80;;;;;;;8.87;100.00;97775.91;105959;1257;68933;-79
2023/03/09 16:11:57;;;;;;;15.20;10.70;;;;;;;8.82;100.00;97778.17;105644;1257;71902;-77
2023/03/09 16:14:53;;;;;;;12.20;11.00;;;;;;;8.81;100.00;97769.61;105630;1257;62366;-88
2023/03/09 16:17:36;;;;;;;10.10;8.10;;;;;;;8.81;100.00;97768.80;105842;1261;60652;-79
2023/03/09 16:20:14;;;;;;;9.40;8.40;;;;;;;8.79;100.00;97767.31;106134;1260;73871;-79
2023/03/09 16:22:45;;;;;;;14.50;9.30;;;;;;;8.79;100.00;97763.34;105879;1261;67896;-76
2023/03/09 16:25:17;;;;;;;10.50;9.40;;;;;;;8.76;100.00;97760.83;105682;1257;73640;-78
2023/03/09 16:27:47;;;;;;;13.10;11.10;;;;;;;8.78;100.00;97763.73;106123;1260;60394;-83
2023/03/09 16:30:22;;;;;;;10.40;9.30;;;;;;;8.74;100.00;97775.73;105995;1263;60442;-83
2023/03/09 16:32:56;;;;;;;11.90;8.70;;;;;;;8.68;100.00;97779.98;105637;1257;74478;-79
2023/03/09 16:35:27;;;;;;;10.70;9.50;;;;;;;8.66;100.00;97774.92;105426;1258;67750;-74
2023/03/09 16:37:58;;;;;;;10.50;9.20;;;;;;;8.64;100.00;97772.89;105574;1263;74168;-77
2023/03/09 16:40:28;;;;;;;10.80;9.10;;;;;;;8.61;100.00;97770.89;105432;1256;60676;-72
2023/03/09 16:42:57;;;;;;;11.00;8.80;;;;;;;8.64;100.00;97769.79;105738;1260;60852;-84
2023/03/09 16:45:32;;;;;;;11.50;9.90;;;;;;;8.66;100.00;97770.79;105572;1258;75588;-83
2023/03/09 16:48:00;;;;;;;12.10;8.80;;;;;;;8.67;100.00;97775.92;105521;1263;67999;-80
2023/03/09 16:50:31;;;;;;;10.20;8.90;;;;;;;8.66;100.00;97774.64;105759;1257;73773;-81
2023/03/09 16:53:10;;;;;;;13.00;11.20;;;;;;;8.67;100.00;97784.45;105778;1264;60437;-82
2023/03/09 16:55:44;;;;;;;11.10;10.00;;;;;;;8.68;100.00;97778.59;106472;1257;62143;-78
2023/03/09 16:58:13;;;;;;;14.00;11.30;;;;;;;8.70;100.00;97779.79;105757;1257;75662;-83
2023/03/09 17:00:49;;;;;;;16.00;10.90;;;;;;;8.75;100.00;97775.57;105722;1257;70115;-87
2023/03/09 17:03:18;;;;;;;14.80;11.20;;;;;;;8.76;100.00;97774.27;105754;1261;72630;-85
2023/03/09 17:05:48;;;;;;;15.90;14.30;;;;;;;8.75;100.00;97769.98;105866;1256;61110;-76
2023/03/09 17:08:21;;;;;;;15.50;12.40;;;;;;;8.77;100.00;97772.65;105702;1260;61329;-82
2023/03/09 17:10:51;;;;;;;14.00;12.50;;;;;;;8.77;100.00;97785.84;105719;1261;73238;-78
2023/03/09 17:13:24;;;;;;;17.30;14.70;;;;;;;8.77;100.00;97778.86;105669;1262;69596;-76
2023/03/09 17:15:57;;;;;;;17.10;15.30;;;;;;;8.77;100.00;97791.27;105688;1256;74040;-75
2023/03/09 17:18:28;;;;;;;17.40;13.30;;;;;;;8.77;100.00;97804.02;105868;1256;63829;-76
2023/03/09 17:20:57;;;;;;;15.30;13.70;;;;;;;8.84;100.00;97800.92;105797;1256;60552;-75
2023/03/09 17:23:28;;;;;;;13.50;11.40;;;;;;;8.95;100.00;97797.80;105278;1260;74671;-78
2023/03/09 17:25:57;;;;;;;13.80;12.50;;;;;;;8.91;100.00;97788.84;105471;1262;69570;-77
2023/03/09 17:28:25;;;;;;;20.60;14.30;;;;;;;8.83;100.00;97783.52;105746;1256;74251;-75
2023/03/09 17:30:55;;;;;;;23.50;16.20;;;;;;;8.77;100.00;97777.30;105946;1257;62211;-85
2023/03/09 17:33:25;;;;;;;30.50;17.80;;;;;;;8.71;100.00;97778.55;105654;1260;61596;-84
2023/03/09 17:35:53;;;;;;;23.30;16.40;;;;;;;8.69;100.00;97771.76;105789;1259;73976;-82
2023/03/09 17:38:28;;;;;;;33.60;20.30;;;;;;;8.69;100.00;97771.02;105696;1260;66815;-86
2023/03/09 17:40:59;;;;;;;34.30;23.60;;;;;;;8.67;100.00;97770.77;105705;1261;72568;-78
2023/03/09 17:43:36;;;;;;;29.50;24.30;;;;;;;8.68;100.00;97766.47;105505;1256;61021;-81
2023/03/09 17:46:12;;;;;;;34.00;26.70;;;;;;;8.70;100.00;97770.05;105398;1257;61891;-79
2023/03/09 17:48:43;;;;;;;30.10;23.90;;;;;;;8.66;100.00;97766.73;105509;1256;75513;-80
2023/03/09 17:51:16;;;;;;;35.50;29.00;;;;;;;8.64;100.00;97770.27;105737;1256;70455;-85
2023/03/09 17:53:52;;;;;;;39.90;28.40;;;;;;;8.62;100.00;97769.49;105988;1257;72245;-86
2023/03/09 17:56:21;;;;;;;40.80;32.00;;;;;;;8.62;100.00;97777.42;105839;1256;60394;-74
2023/03/09 17:58:50;;;;;;;44.80;32.00;;;;;;;8.66;100.00;97782.30;105709;1256;62183;-79
2023/03/09 18:01:24;;;;;;;33.00;27.30;;;;;;;8.74;100.00;97791.92;105859;1260;75736;-80
2023/03/09 18:03:54;;;;;;;33.90;25.10;;;;;;;8.77;100.00;97780.44;105594;1257;69359;-79
2023/03/09 18:06:26;;;;;;;22.60;19.00;;;;;;;8.78;100.00;97775.75;105533;1256;73640;-77